Forside
METAR-TAF:

METAR-TAF

Lufthavne :

Duluth, Minnesota, USA

Breddekreds: 46-50-34N, længdekreds: 092-13-34W, højde: 435 m

Aktuelle vejr

Denne rapport blev lavet for 13 minutter siden, kl. 08:55 UTC
Vind 6 kt fra vest
Temperatur 17°C
Fugtighed 88%
Tryk 1016 hPa
Sigt: 4.8 km
Brudte skyer i en højde af 4400 ft
Overskyet i en højde af 8500 ft
røg

METAR: KDLH 310855Z 28006KT 3SM FU BKN044 OVC085 17/15 A2999 RMK AO2 LTG DSNT NE SLP154 T01720150 58005

Tid: 04:08 (09:08 UTC)

Vejrudsigter

Denne rapport blev lavet for 3 timer og 37 minutter siden, kl. 05:31 UTC
Foreløbig gælder fra 31 på 06 UTC til 01 på 06 UTC
Vind 9 kt fra vest
Sigt: 6.4 km
Brudte skyer i en højde af 4000 ft
røg, dis
Fra 31 på 0800 UTC
Vind 7 kt fra vest
Sigt: 8.0 km
Brudte skyer i en højde af 6000 ft
tåge/dis, røg, dis, byger i nærheden
Fra 31 på 1900 UTC
Vind 12 kt fra nordnordvest
Sigt: 10 km
Nogle få skyer i en højde af 10000 ft

TAF: KDLH 310531Z 3106/0106 26009KT 4SM FU BR BKN040 FM310800 28007KT 5SM HZ FU BR VCSH BKN060 FM311900 33012KT P6SM FEW100

Vejrobservationer og prognoser fra mere end 4000 lufthavne (METAR og TAF).

De gule og røde prikker repræsenterer de meteorologiske stationer.

Flyt musen over at se navnet på stationen.

Så klik over at se vejr observationer og prognoser.

At skifte det kort: Klik på de grønne knapper med et sort kors for at zoome ind; på den grønne knap med en bindestreg for at zoome ud; eller på de grønne pile for tilstødende kort.


METAR-TAF: